Time;durP1;ratioP1;P1;durP2;ratioP2;P2;SDS_P1;SDS_P2;PMS_P1;PMS_P2;Temp;Humidity;BMP_temperature;BMP_pressure;BME280_temperature;BME280_humidity;BME280_pressure;Samples;Min_cycle;Max_cycle;Signal;HPM_P1;HPM_P2
2021/06/06 00:01:40;;;;;;;10.95;6.05;;;20.30;52.90;;;;;;5115502;28;20189;-86
2021/06/06 00:04:10;;;;;;;9.02;6.07;;;20.20;52.90;;;;;;5099432;28;20168;-85
2021/06/06 00:06:38;;;;;;;9.18;6.78;;;20.30;53.00;;;;;;5082414;28;20170;-85
2021/06/06 00:09:12;;;;;;;9.40;6.15;;;20.30;53.00;;;;;;5097978;28;20176;-86
2021/06/06 00:11:41;;;;;;;8.70;6.10;;;20.30;53.00;;;;;;5115263;27;20189;-84
2021/06/06 00:14:10;;;;;;;10.90;6.63;;;20.20;52.90;;;;;;5098839;28;20177;-86
2021/06/06 00:16:43;;;;;;;9.02;5.97;;;20.30;53.00;;;;;;5115272;28;20164;-83
2021/06/06 00:19:10;;;;;;;8.75;5.85;;;20.20;52.90;;;;;;5081194;28;20176;-85
2021/06/06 00:21:41;;;;;;;9.82;6.05;;;20.30;53.00;;;;;;5063677;28;20176;-83
2021/06/06 00:24:07;;;;;;;9.10;5.97;;;20.30;53.00;;;;;;5064287;28;20200;-86
2021/06/06 00:26:34;;;;;;;8.18;6.03;;;20.20;53.00;;;;;;5116073;28;20181;-85
2021/06/06 00:29:04;;;;;;;7.30;5.85;;;20.20;53.00;;;;;;5081081;28;20184;-85
2021/06/06 00:31:31;;;;;;;8.88;6.80;;;20.20;52.90;;;;;;5063852;28;20237;-84
2021/06/06 00:33:58;;;;;;;10.98;6.35;;;20.30;53.00;;;;;;5080325;28;20185;-84
2021/06/06 00:36:25;;;;;;;7.00;6.10;;;20.20;53.00;;;;;;5080800;28;20184;-85
2021/06/06 00:38:55;;;;;;;8.52;5.95;;;20.20;53.10;;;;;;5063186;28;20179;-86
2021/06/06 00:41:23;;;;;;;7.47;5.97;;;20.20;53.10;;;;;;5080775;28;20185;-85
2021/06/06 00:43:52;;;;;;;8.60;5.72;;;20.20;53.10;;;;;;5080080;28;20181;-85
2021/06/06 00:46:22;;;;;;;9.38;5.82;;;20.20;53.20;;;;;;5080685;28;20247;-87
2021/06/06 00:48:50;;;;;;;10.10;6.50;;;20.20;53.20;;;;;;5081312;28;20573;-86
2021/06/06 00:51:28;;;;;;;8.98;5.82;;;20.20;53.10;;;;;;5079802;28;20799;-84
2021/06/06 00:54:03;;;;;;;9.10;5.88;;;20.20;53.10;;;;;;5065159;28;20177;-85
2021/06/06 00:56:28;;;;;;;9.45;5.90;;;20.20;53.20;;;;;;5081750;28;20255;-85
2021/06/06 00:58:55;;;;;;;8.13;5.95;;;20.20;53.20;;;;;;5115516;28;20180;-86
2021/06/06 01:01:23;;;;;;;8.68;6.20;;;20.20;53.20;;;;;;5116980;28;20149;-84
2021/06/06 01:03:49;;;;;;;8.35;6.07;;;20.10;53.20;;;;;;5118467;27;20153;-85
2021/06/06 01:06:23;;;;;;;9.82;5.70;;;20.20;53.20;;;;;;5118911;27;20627;-86
2021/06/06 01:08:55;;;;;;;8.18;6.07;;;20.10;53.20;;;;;;5102843;28;20165;-85
2021/06/06 01:11:37;;;;;;;7.70;6.45;;;20.20;53.30;;;;;;5083566;28;20208;-86
2021/06/06 01:14:08;;;;;;;8.80;6.10;;;20.00;53.20;;;;;;5086887;28;20232;-84
2021/06/06 01:16:37;;;;;;;9.85;6.40;;;20.20;53.30;;;;;;5101176;28;20169;-85
2021/06/06 01:19:10;;;;;;;8.38;6.55;;;20.20;53.40;;;;;;5118871;27;20607;-85
2021/06/06 01:21:48;;;;;;;8.05;6.28;;;20.10;53.30;;;;;;5101809;28;20576;-83
2021/06/06 01:24:37;;;;;;;8.88;6.20;;;20.20;53.30;;;;;;5119305;27;20595;-84
2021/06/06 01:27:13;;;;;;;10.32;6.25;;;20.20;53.30;;;;;;5101644;28;20161;-86
2021/06/06 01:29:49;;;;;;;9.50;6.57;;;20.10;53.40;;;;;;5101294;28;20144;-84
2021/06/06 01:32:22;;;;;;;9.80;6.50;;;20.20;53.40;;;;;;5101266;28;20241;-83
2021/06/06 01:34:53;;;;;;;8.23;6.20;;;20.10;53.40;;;;;;5118492;27;20241;-84
2021/06/06 01:37:21;;;;;;;9.25;5.93;;;20.10;53.40;;;;;;5101372;28;20521;-84
2021/06/06 01:39:52;;;;;;;9.32;6.00;;;20.10;53.40;;;;;;5101096;28;20168;-85
2021/06/06 01:42:27;;;;;;;8.02;6.50;;;20.10;53.40;;;;;;5099921;28;20168;-84
2021/06/06 01:44:54;;;;;;;8.75;6.28;;;20.10;53.50;;;;;;5118561;27;20180;-84
2021/06/06 01:47:24;;;;;;;8.90;6.13;;;20.10;53.50;;;;;;5100616;28;20149;-83
2021/06/06 01:49:51;;;;;;;8.75;6.38;;;20.10;53.50;;;;;;5117535;27;20269;-83
2021/06/06 01:52:21;;;;;;;8.98;6.88;;;20.10;54.20;;;;;;5116920;28;20227;-84
2021/06/06 01:54:50;;;;;;;9.00;6.65;;;20.10;53.50;;;;;;5066346;28;20275;-83
2021/06/06 01:57:21;;;;;;;11.27;6.18;;;20.00;53.50;;;;;;5065289;28;20177;-82
2021/06/06 01:59:49;;;;;;;9.13;6.20;;;20.10;53.50;;;;;;5116876;28;20580;-85
2021/06/06 02:02:14;;;;;;;7.30;5.65;;;20.00;53.50;;;;;;5083054;28;20175;-86
2021/06/06 02:04:43;;;;;;;7.55;5.85;;;20.00;53.50;;;;;;5102166;28;20149;-86
2021/06/06 02:07:17;;;;;;;7.82;6.10;;;20.10;53.50;;;;;;5065611;28;20176;-86
2021/06/06 02:09:49;;;;;;;10.75;6.25;;;20.10;53.60;;;;;;5098962;28;20177;-85
2021/06/06 02:12:17;;;;;;;9.93;5.93;;;20.00;53.60;;;;;;5082145;28;20212;-83
2021/06/06 02:14:49;;;;;;;10.70;6.50;;;20.00;53.50;;;;;;5082434;28;20203;-85
2021/06/06 02:17:24;;;;;;;7.05;5.90;;;20.00;53.60;;;;;;5065406;28;20181;-86
2021/06/06 02:19:56;;;;;;;8.25;6.60;;;20.00;53.60;;;;;;5067548;28;20188;-83
2021/06/06 02:22:27;;;;;;;7.93;5.82;;;20.00;53.80;;;;;;5098902;28;20271;-84
2021/06/06 02:24:53;;;;;;;8.40;6.05;;;20.00;53.60;;;;;;5082608;28;20173;-84
2021/06/06 02:27:29;;;;;;;7.70;6.22;;;19.90;53.60;;;;;;5099885;28;20297;-83
2021/06/06 02:30:11;;;;;;;8.55;6.30;;;20.00;53.70;;;;;;5065807;28;20184;-85
2021/06/06 02:32:57;;;;;;;9.63;6.72;;;20.00;53.60;;;;;;5084561;28;20216;-85
2021/06/06 02:35:31;;;;;;;8.02;6.50;;;20.00;53.70;;;;;;5100169;28;20187;-85
2021/06/06 02:38:06;;;;;;;9.23;5.82;;;20.00;53.70;;;;;;5082157;28;20172;-86
2021/06/06 02:40:40;;;;;;;9.32;6.55;;;20.00;53.70;;;;;;5081668;28;20179;-86
2021/06/06 02:43:11;;;;;;;7.68;5.90;;;20.00;53.70;;;;;;5081890;28;20187;-86
2021/06/06 02:45:39;;;;;;;7.90;6.40;;;20.00;53.70;;;;;;5081015;28;20176;-84
2021/06/06 02:48:14;;;;;;;8.73;6.20;;;19.90;53.70;;;;;;5064783;28;20655;-85
2021/06/06 02:50:42;;;;;;;6.95;5.97;;;19.90;53.70;;;;;;5064848;28;20227;-86
2021/06/06 02:53:16;;;;;;;7.90;5.90;;;20.00;53.80;;;;;;5081294;28;20309;-83
2021/06/06 02:55:49;;;;;;;9.07;6.07;;;20.00;53.80;;;;;;5116827;27;20164;-84
2021/06/06 02:58:29;;;;;;;8.63;6.40;;;20.00;53.80;;;;;;5064400;28;20177;-86
2021/06/06 03:00:59;;;;;;;7.80;5.90;;;20.00;53.80;;;;;;5047461;28;20191;-85
2021/06/06 03:03:28;;;;;;;8.63;6.18;;;19.90;53.80;;;;;;5115723;27;20626;-86
2021/06/06 03:05:54;;;;;;;9.18;6.47;;;20.00;53.80;;;;;;5116727;27;20169;-86
2021/06/06 03:08:20;;;;;;;6.72;5.80;;;19.90;53.80;;;;;;5098619;28;20175;-83
2021/06/06 03:10:46;;;;;;;8.02;5.95;;;19.90;53.70;;;;;;5082211;28;20165;-84
2021/06/06 03:13:24;;;;;;;8.90;6.05;;;19.90;53.70;;;;;;5115121;28;20176;-84
2021/06/06 03:15:53;;;;;;;8.43;5.60;;;19.90;53.80;;;;;;5098474;28;20264;-86
2021/06/06 03:18:19;;;;;;;7.68;6.00;;;19.90;53.80;;;;;;5098832;28;20581;-83
2021/06/06 03:20:49;;;;;;;8.30;6.13;;;19.90;53.80;;;;;;5081754;28;20209;-86
2021/06/06 03:23:20;;;;;;;8.40;6.20;;;19.90;53.80;;;;;;5115707;28;20176;-84
2021/06/06 03:25:50;;;;;;;7.75;6.32;;;19.90;53.80;;;;;;5098569;28;20164;-85
2021/06/06 03:28:17;;;;;;;8.60;6.07;;;20.00;53.80;;;;;;5115503;27;20153;-83
2021/06/06 03:30:49;;;;;;;8.02;6.00;;;19.90;53.80;;;;;;5097969;28;20251;-85
2021/06/06 03:33:19;;;;;;;7.13;6.35;;;20.00;53.80;;;;;;5080458;28;20241;-85
2021/06/06 03:35:50;;;;;;;7.45;5.95;;;19.90;53.80;;;;;;5098350;28;20164;-84
2021/06/06 03:38:16;;;;;;;8.25;5.90;;;19.90;53.80;;;;;;5080223;28;20176;-85
2021/06/06 03:40:45;;;;;;;9.93;6.22;;;19.90;53.80;;;;;;5098125;28;20153;-85
2021/06/06 03:43:13;;;;;;;8.82;5.95;;;20.00;53.90;;;;;;5081145;28;20185;-85
2021/06/06 03:45:40;;;;;;;6.88;6.15;;;19.90;53.90;;;;;;5115941;27;20157;-82
2021/06/06 03:48:07;;;;;;;8.52;6.15;;;20.00;53.90;;;;;;5114661;28;20248;-83
2021/06/06 03:50:33;;;;;;;7.35;6.30;;;20.00;53.90;;;;;;5097174;28;20228;-85
2021/06/06 03:52:59;;;;;;;7.45;6.05;;;20.00;53.90;;;;;;5114510;28;20244;-84
2021/06/06 03:55:26;;;;;;;9.68;6.32;;;20.00;53.90;;;;;;5080700;28;20188;-85
2021/06/06 03:57:53;;;;;;;7.50;5.85;;;20.00;53.90;;;;;;5097319;28;20161;-85
2021/06/06 04:00:27;;;;;;;7.38;6.28;;;20.00;53.90;;;;;;5097894;28;20141;-85
2021/06/06 04:02:53;;;;;;;11.30;6.18;;;19.90;53.80;;;;;;5114798;28;20156;-85
2021/06/06 04:05:19;;;;;;;8.60;6.18;;;19.90;53.80;;;;;;5114707;28;20686;-85
2021/06/06 04:07:46;;;;;;;7.32;5.97;;;20.00;53.80;;;;;;5097569;28;20192;-86
2021/06/06 04:10:12;;;;;;;7.78;6.07;;;20.00;53.90;;;;;;5096982;28;20172;-84
2021/06/06 04:12:42;;;;;;;8.00;5.97;;;20.00;53.90;;;;;;5079390;28;20205;-85
2021/06/06 04:15:13;;;;;;;6.70;5.53;;;19.90;53.80;;;;;;5079445;28;20524;-84
2021/06/06 04:17:41;;;;;;;7.78;6.43;;;20.00;53.90;;;;;;5096079;28;20180;-85
2021/06/06 04:20:09;;;;;;;8.57;6.05;;;19.90;53.80;;;;;;5062675;28;20187;-85
2021/06/06 04:22:34;;;;;;;8.30;5.95;;;20.00;53.90;;;;;;5079199;28;20251;-85
2021/06/06 04:25:05;;;;;;;8.65;5.82;;;20.00;53.90;;;;;;5113797;28;20624;-86
2021/06/06 04:27:34;;;;;;;7.00;5.93;;;20.00;53.80;;;;;;5079492;28;20643;-86
2021/06/06 04:30:04;;;;;;;6.82;5.82;;;20.00;53.70;;;;;;5095720;28;20550;-86
2021/06/06 04:32:32;;;;;;;8.43;6.35;;;20.10;53.80;;;;;;5079829;28;20679;-85
2021/06/06 04:35:00;;;;;;;7.50;5.95;;;20.00;53.70;;;;;;5079639;28;20548;-85
2021/06/06 04:37:28;;;;;;;8.95;6.43;;;20.10;53.70;;;;;;5082574;28;20215;-86
2021/06/06 04:39:55;;;;;;;9.15;6.43;;;20.00;53.60;;;;;;5066290;28;20229;-85
2021/06/06 04:42:23;;;;;;;8.00;6.03;;;20.10;53.70;;;;;;5082963;28;20188;-85
2021/06/06 04:44:50;;;;;;;10.18;6.25;;;20.10;53.70;;;;;;5083323;28;20267;-85
2021/06/06 04:47:17;;;;;;;7.65;6.00;;;20.10;53.70;;;;;;5100312;28;20184;-86
2021/06/06 04:49:43;;;;;;;10.38;6.30;;;20.10;53.70;;;;;;5082580;28;20224;-85
2021/06/06 04:52:10;;;;;;;10.77;6.53;;;20.10;53.60;;;;;;5100836;28;20558;-85
2021/06/06 04:54:37;;;;;;;9.10;6.05;;;20.10;53.70;;;;;;5117588;28;20236;-85
2021/06/06 04:57:04;;;;;;;8.35;6.35;;;20.00;53.60;;;;;;5100873;28;20510;-84
2021/06/06 04:59:30;;;;;;;8.73;6.30;;;20.10;53.60;;;;;;5117560;28;20155;-84
2021/06/06 05:01:57;;;;;;;7.95;6.05;;;20.10;53.70;;;;;;5100905;28;20159;-82
2021/06/06 05:04:28;;;;;;;7.13;6.15;;;20.10;53.70;;;;;;5100705;28;20145;-85
2021/06/06 05:06:57;;;;;;;9.55;6.10;;;20.10;53.70;;;;;;5082201;28;20172;-85
2021/06/06 05:09:26;;;;;;;7.53;6.05;;;20.10;53.70;;;;;;5082274;28;20177;-83
2021/06/06 05:11:56;;;;;;;8.02;6.40;;;20.10;53.70;;;;;;5082370;28;20289;-83
2021/06/06 05:14:26;;;;;;;11.95;6.80;;;20.10;53.60;;;;;;5099949;28;20185;-84
2021/06/06 05:16:56;;;;;;;7.82;6.25;;;20.10;53.70;;;;;;5081831;28;20272;-85
2021/06/06 05:19:25;;;;;;;8.02;6.60;;;20.10;53.60;;;;;;5099257;28;20181;-85
2021/06/06 05:21:54;;;;;;;7.03;5.97;;;20.10;53.60;;;;;;5065592;28;20177;-84
2021/06/06 05:24:23;;;;;;;6.72;5.93;;;20.10;53.70;;;;;;5081935;28;20554;-84
2021/06/06 05:26:52;;;;;;;9.27;6.40;;;20.10;53.50;;;;;;5082525;28;20191;-85
2021/06/06 05:29:22;;;;;;;8.35;6.43;;;20.10;53.50;;;;;;5082101;28;20647;-85
2021/06/06 05:31:54;;;;;;;7.53;6.25;;;20.20;53.50;;;;;;5082503;28;20216;-85
2021/06/06 05:34:23;;;;;;;8.57;6.18;;;20.20;53.50;;;;;;5081963;28;20223;-85
2021/06/06 05:36:49;;;;;;;7.57;6.28;;;20.20;53.50;;;;;;5081551;28;20836;-85
2021/06/06 05:39:17;;;;;;;7.82;6.10;;;20.20;53.50;;;;;;5117032;28;20181;-83
2021/06/06 05:41:45;;;;;;;9.00;6.45;;;20.20;53.40;;;;;;5065297;28;20188;-83
2021/06/06 05:44:13;;;;;;;7.82;6.20;;;20.20;53.40;;;;;;5082011;28;20188;-84
2021/06/06 05:46:43;;;;;;;7.90;6.03;;;20.20;53.40;;;;;;5082414;28;20181;-85
2021/06/06 05:49:11;;;;;;;8.13;6.40;;;20.30;53.30;;;;;;5064145;28;20534;-85
2021/06/06 05:51:39;;;;;;;7.43;6.28;;;20.30;53.30;;;;;;5081925;28;20690;-85
2021/06/06 05:54:06;;;;;;;8.05;6.18;;;20.20;53.90;;;;;;5065538;28;20216;-84
2021/06/06 05:56:34;;;;;;;7.57;6.43;;;20.20;53.30;;;;;;5082094;28;20180;-85
2021/06/06 05:59:02;;;;;;;8.85;6.18;;;20.30;53.40;;;;;;5082440;28;20188;-83
2021/06/06 06:01:29;;;;;;;7.50;6.20;;;20.30;53.30;;;;;;5080548;28;20666;-85
2021/06/06 06:03:56;;;;;;;8.80;6.35;;;20.30;53.40;;;;;;5082047;28;20183;-82
2021/06/06 06:06:23;;;;;;;10.30;7.00;;;20.30;53.30;;;;;;5115735;28;20157;-85
2021/06/06 06:08:50;;;;;;;9.02;6.25;;;20.30;53.30;;;;;;5081855;28;20181;-86
2021/06/06 06:11:19;;;;;;;9.25;6.25;;;20.30;53.40;;;;;;5118874;28;20269;-84
2021/06/06 06:13:47;;;;;;;8.05;6.70;;;20.30;53.30;;;;;;5082984;28;20256;-84
2021/06/06 06:16:15;;;;;;;7.35;6.30;;;20.30;53.30;;;;;;5083394;28;20655;-85
2021/06/06 06:18:40;;;;;;;7.55;6.20;;;20.30;53.40;;;;;;5082338;28;20180;-84
2021/06/06 06:21:10;;;;;;;7.95;6.30;;;20.20;53.40;;;;;;5083214;28;20502;-84
2021/06/06 06:23:37;;;;;;;7.13;6.07;;;20.20;53.40;;;;;;5099298;28;20173;-83
2021/06/06 06:26:05;;;;;;;7.35;6.05;;;20.20;53.40;;;;;;5082150;28;20203;-84
2021/06/06 06:28:32;;;;;;;7.93;6.50;;;20.20;53.40;;;;;;5082244;28;20248;-84
2021/06/06 06:30:59;;;;;;;8.23;6.10;;;20.20;53.30;;;;;;5082201;28;20181;-84
2021/06/06 06:33:26;;;;;;;7.55;5.95;;;20.30;53.30;;;;;;5048707;28;20216;-83
2021/06/06 06:35:53;;;;;;;9.35;6.20;;;20.30;53.20;;;;;;5082317;28;20573;-85
2021/06/06 06:38:21;;;;;;;7.50;6.45;;;20.30;53.30;;;;;;5082099;28;20196;-83
2021/06/06 06:40:48;;;;;;;9.25;6.00;;;20.30;53.30;;;;;;5099468;28;20216;-85
2021/06/06 06:43:15;;;;;;;8.07;6.38;;;20.30;53.30;;;;;;5099441;28;20181;-85
2021/06/06 06:45:42;;;;;;;7.70;6.10;;;20.30;53.30;;;;;;5099076;28;20184;-82
2021/06/06 06:48:13;;;;;;;7.78;6.20;;;20.30;53.10;;;;;;5080003;28;20172;-84
2021/06/06 06:50:39;;;;;;;8.82;6.50;;;20.40;53.00;;;;;;5080710;28;20597;-84
2021/06/06 06:53:06;;;;;;;6.50;5.85;;;20.30;53.90;;;;;;5098572;28;20188;-84
2021/06/06 06:55:32;;;;;;;8.43;6.22;;;20.30;53.20;;;;;;5097136;28;20164;-85
2021/06/06 06:57:59;;;;;;;7.30;5.93;;;20.30;53.10;;;;;;5096991;28;20213;-82
2021/06/06 07:00:30;;;;;;;7.30;6.28;;;20.30;53.10;;;;;;5097433;28;20157;-84
2021/06/06 07:02:56;;;;;;;7.65;6.40;;;20.30;53.20;;;;;;5079492;28;20512;-84
2021/06/06 07:05:22;;;;;;;8.38;6.30;;;20.40;53.00;;;;;;5097278;28;20214;-83
2021/06/06 07:07:48;;;;;;;8.85;5.80;;;20.50;53.00;;;;;;5096597;28;20161;-84
2021/06/06 07:10:18;;;;;;;7.03;6.20;;;20.40;52.90;;;;;;5097898;28;20829;-84
2021/06/06 07:12:46;;;;;;;7.57;6.38;;;20.40;53.00;;;;;;5062376;28;20220;-83
2021/06/06 07:15:16;;;;;;;8.07;6.47;;;20.50;52.90;;;;;;5079351;28;20639;-84
2021/06/06 07:17:46;;;;;;;8.27;6.07;;;20.50;53.00;;;;;;5079261;28;20248;-83
2021/06/06 07:20:18;;;;;;;7.78;6.10;;;20.50;53.00;;;;;;5078693;28;20607;-83
2021/06/06 07:22:45;;;;;;;12.00;6.05;;;20.50;52.80;;;;;;5079113;28;20248;-84
2021/06/06 07:25:13;;;;;;;10.63;5.78;;;20.50;52.90;;;;;;5079464;28;20720;-84
2021/06/06 07:27:43;;;;;;;6.82;6.00;;;20.60;52.60;;;;;;5079191;28;20181;-83
2021/06/06 07:30:13;;;;;;;9.05;6.43;;;20.50;52.70;;;;;;5079433;28;20187;-83
2021/06/06 07:32:41;;;;;;;8.88;6.65;;;20.50;52.60;;;;;;5079404;28;20212;-84
2021/06/06 07:35:10;;;;;;;8.27;6.10;;;20.50;52.70;;;;;;5079691;28;20177;-83
2021/06/06 07:37:40;;;;;;;8.52;5.78;;;20.50;52.90;;;;;;5079072;28;20212;-85
2021/06/06 07:40:08;;;;;;;6.60;5.88;;;20.60;52.70;;;;;;5078010;28;20176;-83
2021/06/06 07:42:35;;;;;;;7.72;5.90;;;20.50;52.60;;;;;;5061412;28;20214;-83
2021/06/06 07:45:03;;;;;;;9.10;6.38;;;20.60;52.50;;;;;;5094675;28;20220;-84
2021/06/06 07:47:30;;;;;;;8.43;6.15;;;20.70;52.40;;;;;;5077774;28;20181;-84
2021/06/06 07:49:56;;;;;;;7.30;5.95;;;20.70;52.50;;;;;;5076988;28;20586;-84
2021/06/06 07:52:23;;;;;;;7.15;6.00;;;20.70;52.40;;;;;;5112102;28;20188;-84
2021/06/06 07:54:50;;;;;;;8.95;6.10;;;20.60;52.40;;;;;;5077099;28;20181;-85
2021/06/06 07:57:18;;;;;;;7.28;6.30;;;20.70;52.40;;;;;;5077187;28;20184;-83
2021/06/06 07:59:46;;;;;;;8.70;6.25;;;20.70;52.60;;;;;;5093720;28;20188;-84
2021/06/06 08:02:16;;;;;;;6.95;6.18;;;20.60;52.50;;;;;;5077506;28;20209;-85
2021/06/06 08:04:43;;;;;;;8.18;6.20;;;20.60;52.50;;;;;;5078030;28;20177;-85
2021/06/06 08:07:10;;;;;;;8.68;6.10;;;20.60;52.40;;;;;;5077316;28;20196;-84
2021/06/06 08:09:37;;;;;;;8.35;6.47;;;20.60;52.50;;;;;;5075780;28;20173;-84
2021/06/06 08:12:05;;;;;;;8.27;5.93;;;20.60;52.60;;;;;;5075684;28;20212;-85
2021/06/06 08:14:33;;;;;;;9.15;6.65;;;20.50;52.70;;;;;;5093154;28;20184;-83
2021/06/06 08:17:01;;;;;;;7.80;6.10;;;20.50;52.60;;;;;;5076710;28;20176;-83
2021/06/06 08:19:29;;;;;;;7.15;6.07;;;20.50;52.60;;;;;;5093828;28;20244;-84
2021/06/06 08:21:57;;;;;;;8.93;5.88;;;20.50;52.60;;;;;;5093660;28;20187;-84
2021/06/06 08:24:25;;;;;;;6.55;5.72;;;20.50;52.70;;;;;;5077229;28;20662;-84
2021/06/06 08:26:53;;;;;;;7.43;6.35;;;20.60;52.70;;;;;;5077633;28;20256;-84
2021/06/06 08:29:20;;;;;;;9.00;6.25;;;20.60;52.60;;;;;;5078358;28;20189;-81
2021/06/06 08:31:49;;;;;;;10.95;6.30;;;20.70;52.40;;;;;;5078559;28;20212;-84
2021/06/06 08:34:19;;;;;;;7.88;6.25;;;20.70;52.50;;;;;;5078639;28;20180;-84
2021/06/06 08:36:47;;;;;;;9.35;6.20;;;20.60;52.40;;;;;;5095387;28;20275;-83
2021/06/06 08:39:18;;;;;;;9.25;6.50;;;20.60;52.50;;;;;;5079237;28;20184;-83
2021/06/06 08:41:51;;;;;;;10.25;6.40;;;20.60;52.60;;;;;;5080756;28;20313;-84
2021/06/06 08:44:24;;;;;;;10.05;6.40;;;20.50;52.60;;;;;;5079859;28;20248;-82
2021/06/06 08:47:05;;;;;;;9.43;6.50;;;20.50;52.70;;;;;;5079087;28;20390;-84
2021/06/06 08:49:38;;;;;;;8.93;6.40;;;20.60;52.60;;;;;;5095069;28;20159;-84
2021/06/06 08:52:17;;;;;;;10.68;6.15;;;20.70;52.40;;;;;;5095585;28;20192;-84
2021/06/06 08:55:07;;;;;;;10.68;6.28;;;20.80;52.30;;;;;;5062431;28;20178;-84
2021/06/06 08:57:44;;;;;;;16.30;6.20;;;20.80;52.30;;;;;;5080336;28;20179;-83
2021/06/06 09:00:28;;;;;;;9.98;6.35;;;20.70;52.40;;;;;;5078926;28;20182;-84
2021/06/06 09:03:00;;;;;;;11.48;6.57;;;20.70;52.50;;;;;;5093838;28;20164;-85
2021/06/06 09:05:31;;;;;;;12.68;6.85;;;20.70;52.50;;;;;;5077715;28;20165;-84
2021/06/06 09:07:59;;;;;;;15.98;6.60;;;20.60;52.70;;;;;;5077839;28;20180;-83
2021/06/06 09:10:32;;;;;;;11.20;6.68;;;20.60;52.60;;;;;;5076998;28;20532;-84
2021/06/06 09:13:02;;;;;;;14.55;6.55;;;20.70;52.60;;;;;;5077340;28;20212;-84
2021/06/06 09:15:29;;;;;;;18.17;6.95;;;20.60;52.60;;;;;;5077174;28;20181;-84
2021/06/06 09:17:58;;;;;;;14.77;6.70;;;20.70;53.50;;;;;;5077268;28;20191;-84
2021/06/06 09:20:39;;;;;;;15.80;6.50;;;20.70;52.70;;;;;;5077701;28;20185;-83
2021/06/06 09:23:27;;;;;;;11.38;6.68;;;20.70;52.40;;;;;;5080365;28;20160;-84
2021/06/06 09:26:05;;;;;;;17.92;6.70;;;20.70;52.50;;;;;;5081892;28;20173;-84
2021/06/06 09:28:33;;;;;;;12.50;6.43;;;20.70;52.40;;;;;;5098383;28;20269;-83
2021/06/06 09:31:06;;;;;;;21.55;7.15;;;20.80;52.30;;;;;;5081445;28;20260;-84
2021/06/06 09:33:36;;;;;;;19.83;6.78;;;20.80;52.30;;;;;;5098421;28;20188;-84
2021/06/06 09:36:15;;;;;;;15.20;6.40;;;20.80;52.30;;;;;;5081940;28;20172;-84
2021/06/06 09:38:41;;;;;;;19.20;7.10;;;20.70;52.30;;;;;;5098002;28;20165;-84
2021/06/06 09:41:18;;;;;;;20.10;7.65;;;20.80;52.40;;;;;;5097940;28;20583;-82
2021/06/06 09:43:57;;;;;;;26.30;7.32;;;20.80;53.10;;;;;;5096971;28;20172;-82
2021/06/06 09:46:23;;;;;;;17.50;7.15;;;20.70;52.60;;;;;;5097337;28;20231;-84
2021/06/06 09:48:49;;;;;;;14.38;7.25;;;20.70;52.70;;;;;;5081262;28;20184;-84
2021/06/06 09:51:28;;;;;;;23.15;6.90;;;20.70;52.40;;;;;;5097587;28;20224;-84
2021/06/06 09:53:57;;;;;;;26.60;7.78;;;20.80;52.50;;;;;;5097444;28;20172;-83
2021/06/06 09:56:26;;;;;;;23.95;7.40;;;20.70;52.40;;;;;;5099120;28;20153;-83
2021/06/06 09:58:53;;;;;;;31.98;8.05;;;20.80;52.40;;;;;;5097592;28;20145;-84
2021/06/06 10:01:31;;;;;;;22.15;7.70;;;20.80;52.40;;;;;;5080420;28;20176;-83
2021/06/06 10:04:00;;;;;;;21.38;7.07;;;20.90;52.40;;;;;;5098458;28;20155;-85
2021/06/06 10:06:41;;;;;;;22.38;7.53;;;20.80;52.50;;;;;;5097301;28;20149;-83
2021/06/06 10:09:25;;;;;;;21.60;7.32;;;20.80;52.40;;;;;;5098355;28;20190;-82
2021/06/06 10:11:57;;;;;;;22.15;6.93;;;20.80;52.60;;;;;;5099100;28;20655;-82
2021/06/06 10:14:42;;;;;;;18.63;7.55;;;20.80;52.60;;;;;;5079374;28;20168;-81
2021/06/06 10:17:09;;;;;;;21.63;7.18;;;20.90;52.50;;;;;;5097922;28;20164;-81
2021/06/06 10:19:39;;;;;;;17.17;7.20;;;20.90;52.30;;;;;;5096987;28;20247;-83
2021/06/06 10:22:08;;;;;;;15.88;6.47;;;21.00;52.10;;;;;;5082331;28;20176;-84
2021/06/06 10:24:43;;;;;;;30.55;7.00;;;21.00;52.10;;;;;;5098959;28;20164;-83
2021/06/06 10:27:18;;;;;;;20.83;7.28;;;21.10;52.00;;;;;;5064123;28;20172;-82
2021/06/06 10:29:48;;;;;;;17.85;7.05;;;21.00;52.00;;;;;;5064240;28;20180;-84
2021/06/06 10:32:24;;;;;;;19.25;6.90;;;21.00;51.90;;;;;;5080190;28;20291;-83
2021/06/06 10:34:56;;;;;;;16.85;7.28;;;21.10;51.90;;;;;;5078897;28;20177;-83
2021/06/06 10:37:21;;;;;;;18.23;6.40;;;21.10;51.90;;;;;;5096947;28;20161;-84
2021/06/06 10:39:57;;;;;;;18.88;7.00;;;21.10;52.10;;;;;;5098504;28;20167;-83
2021/06/06 10:42:40;;;;;;;13.73;6.80;;;21.00;52.00;;;;;;5098797;28;20168;-84
2021/06/06 10:45:19;;;;;;;17.75;6.90;;;20.90;52.30;;;;;;5080127;28;20603;-83
2021/06/06 10:48:15;;;;;;;13.45;6.95;;;20.90;52.30;;;;;;5098854;28;20149;-83
2021/06/06 10:50:44;;;;;;;12.25;7.03;;;20.90;52.50;;;;;;5097442;28;20232;-83
2021/06/06 10:53:25;;;;;;;18.02;6.75;;;20.90;52.40;;;;;;5097452;28;20188;-84
2021/06/06 10:55:58;;;;;;;18.73;7.20;;;20.90;52.10;;;;;;5099142;28;20180;-82
2021/06/06 10:58:58;;;;;;;18.35;7.68;;;20.90;52.10;;;;;;5097156;28;20155;-84
2021/06/06 11:01:29;;;;;;;14.35;6.88;;;21.00;52.20;;;;;;5098721;28;20195;-84
2021/06/06 11:04:17;;;;;;;15.63;6.90;;;21.10;52.00;;;;;;5097026;28;20157;-84
2021/06/06 11:06:46;;;;;;;20.02;6.82;;;21.20;51.90;;;;;;5080792;28;20168;-82
2021/06/06 11:09:23;;;;;;;14.60;7.13;;;21.10;51.90;;;;;;5114861;28;20149;-82
2021/06/06 11:12:10;;;;;;;13.02;6.88;;;21.10;51.90;;;;;;5114434;28;20653;-83
2021/06/06 11:14:49;;;;;;;17.95;6.82;;;21.10;51.80;;;;;;5098380;28;20192;-83
2021/06/06 11:17:33;;;;;;;13.55;6.50;;;21.10;51.90;;;;;;5099027;28;20630;-85
2021/06/06 11:20:29;;;;;;;13.18;7.18;;;21.10;51.70;;;;;;5113045;27;20152;-83
2021/06/06 11:22:56;;;;;;;16.30;7.10;;;21.20;51.80;;;;;;5084232;28;20277;-83
2021/06/06 11:25:44;;;;;;;17.08;7.03;;;21.20;51.80;;;;;;5111234;28;20221;-84
2021/06/06 11:28:34;;;;;;;17.30;7.50;;;21.10;52.00;;;;;;5112754;28;20165;-83
2021/06/06 11:31:02;;;;;;;15.35;7.20;;;21.20;51.90;;;;;;5098478;28;20252;-85
2021/06/06 11:33:44;;;;;;;16.90;6.85;;;21.20;52.00;;;;;;5096690;28;20647;-83
2021/06/06 11:36:10;;;;;;;16.42;6.70;;;21.20;52.10;;;;;;5075058;28;20315;-83
2021/06/06 11:38:42;;;;;;;18.70;7.35;;;21.20;52.10;;;;;;5059148;28;20686;-84
2021/06/06 11:41:27;;;;;;;11.25;6.60;;;21.30;52.00;;;;;;5043680;28;20255;-83
2021/06/06 11:44:10;;;;;;;13.00;6.85;;;21.20;52.10;;;;;;5075618;28;20234;-85
2021/06/06 11:46:39;;;;;;;12.55;7.07;;;21.10;52.30;;;;;;5059842;28;20181;-83
2021/06/06 11:49:34;;;;;;;15.30;6.82;;;21.10;52.30;;;;;;5042582;28;20156;-84
2021/06/06 11:52:12;;;;;;;18.05;7.10;;;21.00;52.40;;;;;;5042604;28;20583;-85
2021/06/06 11:54:42;;;;;;;11.90;6.68;;;21.10;52.40;;;;;;5058241;28;20288;-84
2021/06/06 11:57:19;;;;;;;13.15;6.88;;;21.20;52.10;;;;;;5058742;28;20659;-85
2021/06/06 11:59:54;;;;;;;14.73;6.68;;;21.20;52.10;;;;;;5043322;28;20169;-85
2021/06/06 12:02:24;;;;;;;15.90;6.82;;;21.30;51.90;;;;;;5043735;28;20270;-84
2021/06/06 12:04:50;;;;;;;15.10;6.57;;;21.30;51.90;;;;;;5043981;28;20180;-84
2021/06/06 12:07:25;;;;;;;13.05;7.00;;;21.20;51.80;;;;;;5078909;28;20181;-84
2021/06/06 12:09:52;;;;;;;12.13;6.82;;;21.20;52.10;;;;;;5113808;27;20152;-85
2021/06/06 12:12:30;;;;;;;14.43;6.90;;;21.20;52.10;;;;;;5096780;28;20200;-84
2021/06/06 12:15:22;;;;;;;15.88;8.00;;;21.10;52.20;;;;;;5096760;28;20252;-84
2021/06/06 12:17:58;;;;;;;12.82;6.60;;;21.10;52.20;;;;;;5081596;28;20542;-84
2021/06/06 12:20:23;;;;;;;12.35;6.80;;;21.10;52.10;;;;;;5096441;28;20152;-85
2021/06/06 12:22:49;;;;;;;14.90;6.32;;;21.20;52.00;;;;;;5079681;28;20603;-84
2021/06/06 12:25:25;;;;;;;14.95;7.20;;;21.20;51.90;;;;;;5096682;28;20153;-85
2021/06/06 12:28:12;;;;;;;9.48;6.80;;;21.20;51.90;;;;;;5114679;28;20156;-85
2021/06/06 12:30:54;;;;;;;11.65;6.93;;;21.20;52.10;;;;;;5096585;28;20179;-84
2021/06/06 12:33:28;;;;;;;15.88;7.20;;;21.10;52.20;;;;;;5097208;28;20200;-84
2021/06/06 12:35:56;;;;;;;10.00;6.35;;;21.10;52.40;;;;;;5113973;28;20562;-84
2021/06/06 12:38:23;;;;;;;11.18;6.80;;;21.10;52.30;;;;;;5097356;28;20164;-84
2021/06/06 12:40:48;;;;;;;13.57;6.75;;;21.10;52.20;;;;;;5098158;28;20156;-84
2021/06/06 12:43:17;;;;;;;15.27;6.82;;;21.20;52.00;;;;;;5113847;28;20157;-84
2021/06/06 12:45:47;;;;;;;15.10;7.65;;;21.20;52.10;;;;;;5113532;28;20592;-84
2021/06/06 12:48:27;;;;;;;14.48;6.82;;;21.20;52.00;;;;;;5063155;28;20176;-85
2021/06/06 12:50:56;;;;;;;15.02;7.10;;;21.20;52.00;;;;;;5080395;28;20216;-84
2021/06/06 12:53:29;;;;;;;12.43;6.70;;;21.20;52.00;;;;;;5094345;28;20670;-85
2021/06/06 12:56:12;;;;;;;13.27;6.68;;;21.30;52.10;;;;;;5078715;28;20219;-84
2021/06/06 12:58:38;;;;;;;13.95;6.80;;;21.20;52.00;;;;;;5097298;28;20196;-83
2021/06/06 13:01:21;;;;;;;16.33;7.53;;;21.20;52.00;;;;;;5096537;28;20175;-82
2021/06/06 13:03:47;;;;;;;12.80;7.30;;;21.30;52.10;;;;;;5079521;28;20620;-83